createdAt,value
2019-02-20T00:01:26.303Z,6.60
2019-02-20T00:03:58.833Z,12.00
2019-02-20T00:06:32.279Z,9.05
2019-02-20T00:09:04.681Z,14.05
2019-02-20T00:11:41.659Z,10.10
2019-02-20T00:14:13.307Z,11.90
2019-02-20T00:16:43.543Z,9.35
2019-02-20T00:19:21.667Z,13.32
2019-02-20T00:21:53.791Z,9.28
2019-02-20T00:24:24.511Z,14.30
2019-02-20T00:26:56.442Z,9.48
2019-02-20T00:29:30.151Z,11.68
2019-02-20T00:32:02.533Z,7.83
2019-02-20T00:34:35.168Z,8.68
2019-02-20T00:37:08.940Z,7.92
2019-02-20T00:39:44.558Z,11.15
2019-02-20T00:42:17.674Z,8.30
2019-02-20T00:45:06.307Z,8.63
2019-02-20T00:47:57.886Z,8.65
2019-02-20T00:50:30.950Z,10.32
2019-02-20T00:53:22.968Z,12.82
2019-02-20T00:55:53.098Z,9.95
2019-02-20T00:58:26.469Z,10.13
2019-02-20T01:01:04.823Z,13.30
2019-02-20T01:03:38.303Z,12.82
2019-02-20T01:06:15.469Z,11.93
2019-02-20T01:08:50.597Z,10.10
2019-02-20T01:11:21.911Z,12.95
2019-02-20T01:13:54.142Z,12.85
2019-02-20T01:16:26.959Z,10.78
2019-02-20T01:18:58.187Z,13.43
2019-02-20T01:21:33.559Z,15.45
2019-02-20T01:24:03.770Z,14.18
2019-02-20T01:26:35.312Z,13.83
2019-02-20T01:29:06.205Z,10.20
2019-02-20T01:31:36.446Z,11.53
2019-02-20T01:34:11.205Z,14.03
2019-02-20T01:36:44.407Z,10.38
2019-02-20T01:39:18.939Z,9.90
2019-02-20T01:41:49.147Z,12.98
2019-02-20T01:44:22.264Z,10.15
2019-02-20T01:47:06.176Z,11.50
2019-02-20T01:49:38.191Z,11.33
2019-02-20T01:52:15.237Z,13.53
2019-02-20T01:54:47.744Z,13.20
2019-02-20T01:57:19.453Z,13.03
2019-02-20T02:00:13.044Z,10.48
2019-02-20T02:02:43.155Z,11.05
2019-02-20T02:05:15.869Z,11.20
2019-02-20T02:07:45.203Z,13.03
2019-02-20T02:10:28.496Z,14.33
2019-02-20T02:13:00.389Z,13.22
2019-02-20T02:15:34.871Z,9.28
2019-02-20T02:18:07.794Z,12.95
2019-02-20T02:20:40.578Z,11.65
2019-02-20T02:23:19.670Z,13.38
2019-02-20T02:25:48.527Z,12.20
2019-02-20T02:28:22.589Z,12.45
2019-02-20T02:30:53.648Z,10.18
2019-02-20T02:33:27.169Z,13.18
2019-02-20T02:36:00.273Z,16.48
2019-02-20T02:38:32.903Z,14.65
2019-02-20T02:41:05.609Z,10.15
2019-02-20T02:43:39.195Z,10.32
2019-02-20T02:46:10.137Z,12.50
2019-02-20T02:48:43.588Z,11.90
2019-02-20T02:51:18.081Z,14.70
2019-02-20T02:53:49.579Z,11.20
2019-02-20T02:56:20.609Z,8.60
2019-02-20T02:58:52.218Z,15.25
2019-02-20T03:01:22.418Z,15.98
2019-02-20T03:03:53.225Z,8.95
2019-02-20T03:06:28.017Z,12.63
2019-02-20T03:09:00.709Z,8.98
2019-02-20T03:11:31.477Z,18.00
2019-02-20T03:14:03.447Z,13.55
2019-02-20T03:16:38.753Z,11.35
2019-02-20T03:19:11.801Z,12.37
2019-02-20T03:21:45.283Z,12.70
2019-02-20T03:24:21.792Z,12.15
2019-02-20T03:26:53.263Z,11.88
2019-02-20T03:29:26.221Z,11.45
2019-02-20T03:31:59.194Z,13.68
2019-02-20T03:34:37.364Z,9.43
2019-02-20T03:37:08.721Z,11.90
2019-02-20T03:39:40.151Z,11.50
2019-02-20T03:42:13.339Z,12.40
2019-02-20T03:44:46.671Z,14.18
2019-02-20T03:47:17.570Z,11.80
2019-02-20T03:49:47.789Z,13.50
2019-02-20T03:52:17.940Z,10.15
2019-02-20T03:54:48.174Z,11.18
2019-02-20T03:57:21.832Z,12.55
2019-02-20T03:59:54.446Z,11.57
2019-02-20T04:02:26.779Z,11.43
2019-02-20T04:04:58.906Z,10.15
2019-02-20T04:07:29.968Z,8.65
2019-02-20T04:10:00.486Z,9.58
2019-02-20T04:12:32.246Z,9.45
2019-02-20T04:15:04.666Z,12.10
2019-02-20T04:17:37.925Z,11.48
2019-02-20T04:20:08.178Z,16.42
2019-02-20T04:22:40.678Z,11.08
2019-02-20T04:25:16.400Z,10.30
2019-02-20T04:27:48.458Z,15.03
2019-02-20T04:30:22.434Z,11.85
2019-02-20T04:32:56.144Z,9.78
2019-02-20T04:35:28.315Z,9.80
2019-02-20T04:38:00.416Z,11.68
2019-02-20T04:40:30.618Z,12.13
2019-02-20T04:43:07.241Z,14.30
2019-02-20T04:45:37.431Z,11.93
2019-02-20T04:48:15.138Z,10.20
2019-02-20T04:50:48.770Z,12.03
2019-02-20T04:53:21.303Z,13.72
2019-02-20T04:55:53.474Z,14.33
2019-02-20T04:58:27.450Z,14.63
2019-02-20T05:00:59.293Z,13.10
2019-02-20T05:03:31.037Z,19.27
2019-02-20T05:06:01.330Z,15.48
2019-02-20T05:08:31.978Z,15.48
2019-02-20T05:18:01.049Z,11.12
2019-02-20T05:20:32.414Z,10.93
2019-02-20T05:25:40.525Z,16.35
2019-02-20T05:28:13.214Z,16.07
2019-02-20T05:30:43.414Z,13.25
2019-02-20T05:33:20.164Z,18.35
2019-02-20T05:35:50.665Z,20.70
2019-02-20T05:38:20.832Z,12.33
2019-02-20T05:40:51.012Z,13.00
2019-02-20T05:43:21.851Z,14.55
2019-02-20T05:45:55.427Z,15.53
2019-02-20T05:48:26.590Z,18.27
2019-02-20T05:50:57.657Z,12.95
2019-02-20T05:53:37.090Z,15.23
2019-02-20T05:56:07.836Z,14.80
2019-02-20T05:58:40.935Z,16.20
2019-02-20T06:01:11.463Z,12.75
2019-02-20T06:03:46.304Z,18.12
2019-02-20T06:06:20.876Z,23.05
2019-02-20T06:08:54.673Z,13.25
2019-02-20T06:11:26.971Z,14.07
2019-02-20T06:14:01.495Z,13.03
2019-02-20T06:16:34.357Z,18.62
2019-02-20T06:19:04.871Z,13.50
2019-02-20T06:21:36.273Z,14.10
2019-02-20T06:24:06.436Z,11.97
2019-02-20T06:26:36.642Z,13.18
2019-02-20T06:29:09.529Z,18.52
2019-02-20T06:31:41.240Z,21.07
2019-02-20T06:34:12.350Z,15.25
2019-02-20T06:36:42.463Z,16.67
2019-02-20T06:39:13.749Z,16.57
2019-02-20T06:41:43.884Z,14.78
2019-02-20T06:44:14.048Z,18.87
2019-02-20T06:46:44.189Z,46.80
2019-02-20T06:49:14.342Z,39.75
2019-02-20T06:51:44.693Z,28.42
2019-02-20T06:54:16.250Z,30.50
2019-02-20T06:56:46.995Z,35.85
2019-02-20T06:59:17.324Z,30.82
2019-02-20T07:01:48.356Z,19.82
2019-02-20T07:04:18.635Z,20.75
2019-02-20T07:07:19.884Z,16.15
2019-02-20T07:10:17.809Z,15.65
2019-02-20T07:13:15.126Z,21.65
2019-02-20T07:16:08.802Z,19.40
2019-02-20T07:19:12.221Z,14.70
2019-02-20T07:22:21.039Z,17.60
2019-02-20T07:25:41.017Z,18.25
2019-02-20T07:29:19.721Z,20.05
2019-02-20T07:31:49.884Z,18.62
2019-02-20T07:34:21.172Z,21.82
2019-02-20T07:36:51.285Z,19.07
2019-02-20T07:39:21.414Z,17.20
2019-02-20T07:41:51.573Z,22.22
2019-02-20T07:44:21.717Z,20.30
2019-02-20T07:46:51.873Z,23.07
2019-02-20T07:49:21.992Z,22.87
2019-02-20T07:51:52.595Z,18.40
2019-02-20T07:54:22.762Z,21.57
2019-02-20T07:56:52.878Z,19.48
2019-02-20T07:59:23.811Z,18.02
2019-02-20T08:01:53.943Z,20.65
2019-02-20T08:04:24.064Z,17.05
2019-02-20T08:06:54.186Z,17.40
2019-02-20T08:09:24.321Z,16.35
2019-02-20T08:11:54.838Z,20.45
2019-02-20T08:14:24.999Z,22.52
2019-02-20T08:16:55.123Z,26.77
2019-02-20T08:19:25.276Z,24.10
2019-02-20T08:21:55.458Z,21.02
2019-02-20T08:24:25.585Z,23.45
2019-02-20T08:26:55.704Z,26.87
2019-02-20T08:29:25.840Z,20.08
2019-02-20T08:31:55.952Z,26.62
2019-02-20T08:34:26.847Z,29.52
2019-02-20T08:36:57.427Z,24.80
2019-02-20T08:39:27.649Z,25.37
2019-02-20T08:41:57.810Z,24.00
2019-02-20T08:44:27.999Z,24.57
2019-02-20T08:46:58.185Z,22.77
2019-02-20T08:49:28.320Z,18.75
2019-02-20T08:51:58.502Z,18.95
2019-02-20T08:54:29.055Z,24.37
2019-02-20T08:56:59.238Z,21.60
2019-02-20T08:59:29.389Z,24.12
2019-02-20T09:01:59.521Z,28.25
2019-02-20T09:04:31.326Z,25.72
2019-02-20T09:07:01.863Z,30.55
2019-02-20T09:09:31.975Z,28.05
2019-02-20T09:12:02.152Z,26.57
2019-02-20T09:14:32.337Z,29.35
2019-02-20T09:17:02.468Z,31.23
2019-02-20T09:19:32.675Z,27.73
2019-02-20T09:22:03.739Z,29.67
2019-02-20T09:24:33.879Z,28.67
2019-02-20T09:27:03.995Z,29.55
2019-02-20T09:29:34.121Z,35.65
2019-02-20T09:32:04.365Z,32.67
2019-02-20T09:34:34.496Z,29.87
2019-02-20T09:37:04.615Z,38.30
2019-02-20T09:39:38.639Z,32.35
2019-02-20T09:42:13.802Z,28.20
2019-02-20T09:44:46.485Z,30.32
2019-02-20T09:47:22.042Z,29.55
2019-02-20T09:49:52.219Z,28.40
2019-02-20T09:52:22.383Z,31.05
2019-02-20T09:54:52.569Z,27.15
2019-02-20T09:57:22.722Z,26.95
2019-02-20T09:59:52.832Z,27.93
2019-02-20T10:02:23.511Z,27.32
2019-02-20T10:04:53.647Z,30.88
2019-02-20T10:07:23.757Z,24.77
2019-02-20T10:09:53.879Z,22.95
2019-02-20T10:12:24.019Z,20.15
2019-02-20T10:14:54.124Z,23.18
2019-02-20T10:17:25.214Z,27.50
2019-02-20T10:19:56.643Z,21.82
2019-02-20T10:22:26.779Z,21.05
2019-02-20T10:24:56.968Z,19.98
2019-02-20T10:27:27.240Z,18.40
2019-02-20T10:29:57.514Z,16.32
2019-02-20T10:32:27.668Z,22.90
2019-02-20T10:34:57.806Z,17.57
2019-02-20T10:37:28.716Z,23.10
2019-02-20T10:39:58.894Z,14.73
2019-02-20T10:42:29.231Z,13.68
2019-02-20T10:44:59.416Z,18.82
2019-02-20T10:47:31.248Z,11.70
2019-02-20T10:50:01.406Z,12.43
2019-02-20T10:52:32.356Z,11.55
2019-02-20T10:55:02.613Z,17.82
2019-02-20T10:57:32.790Z,8.38
2019-02-20T11:00:02.976Z,8.18
2019-02-20T11:02:33.174Z,10.03
2019-02-20T11:05:03.335Z,7.65
2019-02-20T11:07:33.459Z,12.88
2019-02-20T11:10:03.613Z,10.90
2019-02-20T11:12:34.088Z,11.15
2019-02-20T11:15:05.132Z,14.45
2019-02-20T11:17:37.395Z,14.47
2019-02-20T11:20:08.040Z,12.95
2019-02-20T11:22:38.275Z,8.25
2019-02-20T11:25:09.510Z,11.35
2019-02-20T11:27:39.742Z,11.28
2019-02-20T11:30:13.790Z,7.45
2019-02-20T11:32:43.990Z,11.00
2019-02-20T11:35:14.139Z,8.18
2019-02-20T11:37:44.311Z,8.58
2019-02-20T11:40:15.199Z,13.48
2019-02-20T11:42:45.338Z,8.73
2019-02-20T11:45:16.666Z,9.88
2019-02-20T11:47:46.973Z,8.80
2019-02-20T11:50:18.958Z,6.70
2019-02-20T11:52:49.114Z,5.05
2019-02-20T11:55:19.217Z,6.33
2019-02-20T11:57:49.301Z,9.83
2019-02-20T12:00:19.474Z,4.72
2019-02-20T12:02:49.768Z,6.28
2019-02-20T12:05:19.867Z,8.08
2019-02-20T12:07:50.011Z,4.80
2019-02-20T12:10:20.631Z,5.67
2019-02-20T12:12:50.766Z,7.10
2019-02-20T12:15:21.115Z,5.58
2019-02-20T12:17:51.322Z,6.20
2019-02-20T12:20:21.654Z,6.20
2019-02-20T12:22:51.882Z,7.10
2019-02-20T12:25:22.114Z,4.90
2019-02-20T12:27:52.350Z,8.45
2019-02-20T12:30:22.662Z,10.13
2019-02-20T12:32:52.967Z,6.80
2019-02-20T12:35:23.246Z,5.78
2019-02-20T12:37:53.440Z,8.85
2019-02-20T12:40:24.185Z,8.30
2019-02-20T12:42:54.399Z,5.75
2019-02-20T12:45:24.713Z,7.55
2019-02-20T12:47:55.376Z,6.55
2019-02-20T12:50:25.698Z,6.90
2019-02-20T12:52:55.984Z,8.45
2019-02-20T12:55:26.486Z,6.20
2019-02-20T12:57:57.160Z,6.17
2019-02-20T13:00:27.493Z,5.95
2019-02-20T13:02:57.757Z,15.55
2019-02-20T13:05:27.985Z,8.98
2019-02-20T13:07:58.291Z,5.40
2019-02-20T13:10:28.454Z,5.90
2019-02-20T13:12:58.548Z,5.47
2019-02-20T13:15:29.087Z,5.37
2019-02-20T13:17:59.215Z,7.60
2019-02-20T13:20:29.426Z,5.70
2019-02-20T13:23:00.050Z,5.87
2019-02-20T13:25:30.302Z,5.47
2019-02-20T13:28:00.610Z,6.70
2019-02-20T13:30:30.917Z,4.75
2019-02-20T13:33:02.482Z,5.45
2019-02-20T13:35:33.134Z,7.78
2019-02-20T13:38:03.340Z,8.05
2019-02-20T13:40:33.555Z,6.72
2019-02-20T13:43:05.598Z,6.28
2019-02-20T13:45:36.033Z,6.35
2019-02-20T13:48:06.999Z,7.62
2019-02-20T13:50:37.260Z,6.85
2019-02-20T13:53:08.381Z,6.00
2019-02-20T13:55:38.619Z,6.03
2019-02-20T13:58:08.901Z,5.05
2019-02-20T14:00:39.108Z,6.65
2019-02-20T14:03:09.411Z,8.43
2019-02-20T14:05:39.566Z,4.72
2019-02-20T14:08:09.756Z,5.72
2019-02-20T14:10:39.982Z,6.40
2019-02-20T14:13:11.750Z,8.30
2019-02-20T14:15:41.995Z,9.43
2019-02-20T14:18:12.704Z,6.65
2019-02-20T14:20:42.894Z,8.80
2019-02-20T14:23:13.057Z,7.72
2019-02-20T14:25:44.432Z,6.45
2019-02-20T14:28:16.170Z,6.33
2019-02-20T14:30:46.756Z,7.80
2019-02-20T14:33:19.288Z,5.55
2019-02-20T14:35:49.403Z,6.25
2019-02-20T14:38:19.981Z,6.20
2019-02-20T14:40:52.851Z,6.05
2019-02-20T14:43:26.406Z,8.03
2019-02-20T14:45:57.912Z,10.00
2019-02-20T14:48:28.072Z,7.75
2019-02-20T14:51:00.032Z,10.85
2019-02-20T14:53:32.789Z,8.75
2019-02-20T14:56:03.029Z,8.40
2019-02-20T14:58:33.369Z,11.70
2019-02-20T15:01:03.806Z,10.68
2019-02-20T15:03:34.056Z,14.28
2019-02-20T15:06:04.292Z,10.80
2019-02-20T15:08:34.547Z,9.63
2019-02-20T15:11:05.340Z,11.33
2019-02-20T15:13:36.400Z,10.23
2019-02-20T15:16:09.139Z,11.28
2019-02-20T15:18:39.765Z,13.22
2019-02-20T15:21:10.009Z,10.60
2019-02-20T15:23:40.150Z,11.80
2019-02-20T15:26:10.917Z,27.98
2019-02-20T15:28:41.809Z,13.38
2019-02-20T15:31:13.180Z,11.60
2019-02-20T15:33:43.454Z,9.10
2019-02-20T15:36:15.554Z,9.25
2019-02-20T15:38:47.962Z,7.80
2019-02-20T15:41:19.082Z,8.33
2019-02-20T15:43:51.487Z,8.68
2019-02-20T15:46:21.754Z,15.05
2019-02-20T15:48:51.936Z,10.10
2019-02-20T15:51:24.400Z,11.65
2019-02-20T15:53:56.901Z,11.90
2019-02-20T15:56:28.519Z,12.80
2019-02-20T15:58:58.687Z,9.30
2019-02-20T16:01:28.885Z,9.60
2019-02-20T16:04:00.051Z,12.37
2019-02-20T16:06:31.331Z,15.30
2019-02-20T16:09:09.464Z,10.43
2019-02-20T16:11:36.209Z,10.50
2019-02-20T16:14:07.584Z,11.95
2019-02-20T16:16:40.627Z,17.65
2019-02-20T16:19:10.293Z,39.15
2019-02-20T16:21:42.828Z,94.30
2019-02-20T16:24:13.339Z,72.85
2019-02-20T16:26:43.534Z,32.78
2019-02-20T16:29:14.055Z,13.28
2019-02-20T16:31:45.992Z,8.60
2019-02-20T16:34:18.607Z,8.50
2019-02-20T16:36:49.667Z,12.00
2019-02-20T16:39:25.193Z,8.35
2019-02-20T16:41:57.511Z,12.63
2019-02-20T16:44:29.839Z,8.33
2019-02-20T16:47:02.943Z,7.08
2019-02-20T16:49:34.867Z,14.05
2019-02-20T16:52:05.192Z,12.00
2019-02-20T16:54:35.451Z,10.35
2019-02-20T16:57:06.081Z,12.25
2019-02-20T17:00:21.628Z,11.28
2019-02-20T17:02:54.501Z,10.13
2019-02-20T17:05:24.697Z,11.50
2019-02-20T17:07:55.616Z,7.70
2019-02-20T17:10:25.954Z,10.05
2019-02-20T17:12:56.345Z,6.20
2019-02-20T17:15:27.762Z,10.10
2019-02-20T17:17:57.966Z,7.20
2019-02-20T17:20:30.530Z,11.30
2019-02-20T17:23:00.767Z,8.00
2019-02-20T17:25:31.283Z,11.55
2019-02-20T17:28:05.706Z,10.68
2019-02-20T17:30:33.316Z,7.60
2019-02-20T17:33:04.585Z,7.95
2019-02-20T17:35:34.824Z,4.78
2019-02-20T17:38:05.333Z,6.50
2019-02-20T17:40:36.843Z,6.58
2019-02-20T17:43:07.072Z,7.30
2019-02-20T17:45:37.299Z,6.87
2019-02-20T17:48:08.428Z,7.53
2019-02-20T17:50:38.690Z,5.95
2019-02-20T17:53:08.995Z,6.60
2019-02-20T17:55:39.725Z,8.63
2019-02-20T17:58:15.260Z,6.62
2019-02-20T18:00:42.273Z,4.62
2019-02-20T18:03:12.532Z,6.65
2019-02-20T18:05:43.060Z,4.33
2019-02-20T18:08:14.205Z,8.88
2019-02-20T18:10:45.873Z,6.70
2019-02-20T18:13:16.187Z,5.42
2019-02-20T18:15:47.609Z,6.95
2019-02-20T18:18:18.220Z,8.70
2019-02-20T18:20:48.697Z,5.00
2019-02-20T18:23:21.559Z,4.58
2019-02-20T18:25:52.610Z,4.17
2019-02-20T18:28:24.751Z,6.00
2019-02-20T18:30:54.747Z,5.40
2019-02-20T18:33:25.950Z,3.70
2019-02-20T18:35:58.806Z,5.92
2019-02-20T18:38:31.846Z,5.97
2019-02-20T18:41:05.316Z,6.37
2019-02-20T18:43:35.779Z,5.25
2019-02-20T18:46:07.686Z,4.35
2019-02-20T18:48:37.909Z,8.63
2019-02-20T18:51:09.321Z,4.05
2019-02-20T18:53:40.620Z,6.22
2019-02-20T18:56:11.169Z,4.47
2019-02-20T18:58:41.310Z,6.35
2019-02-20T19:01:13.355Z,6.97
2019-02-20T19:03:46.492Z,4.70
2019-02-20T19:06:17.510Z,4.65
2019-02-20T19:08:56.346Z,5.47
2019-02-20T19:12:07.758Z,6.05
2019-02-20T19:15:34.856Z,4.83
2019-02-20T19:19:12.287Z,6.35
2019-02-20T19:22:15.698Z,4.40
2019-02-20T19:25:29.506Z,4.15
2019-02-20T19:28:44.303Z,6.72
2019-02-20T19:31:37.442Z,9.83
2019-02-20T19:34:56.117Z,8.58
2019-02-20T19:38:16.347Z,7.75
2019-02-20T19:41:42.077Z,6.60
2019-02-20T19:45:02.180Z,6.45
2019-02-20T19:48:21.546Z,6.03
2019-02-20T19:51:07.405Z,7.40
2019-02-20T19:54:36.794Z,7.12
2019-02-20T19:57:51.795Z,7.60
2019-02-20T20:01:27.919Z,12.65
2019-02-20T20:04:37.368Z,5.22
2019-02-20T20:07:53.929Z,8.35
2019-02-20T20:11:21.353Z,8.88
2019-02-20T20:14:26.979Z,8.23
2019-02-20T20:17:36.856Z,9.60
2019-02-20T20:20:16.264Z,8.40
2019-02-20T20:23:29.856Z,12.23
2019-02-20T20:26:25.993Z,9.28
2019-02-20T20:29:49.452Z,8.65
2019-02-20T20:32:55.227Z,9.15
2019-02-20T20:35:42.935Z,7.28
2019-02-20T20:38:39.086Z,10.72
2019-02-20T20:41:47.435Z,9.30
2019-02-20T20:44:31.979Z,9.20
2019-02-20T20:47:43.967Z,8.58
2019-02-20T20:50:49.864Z,11.30
2019-02-20T20:53:51.510Z,6.75
2019-02-20T20:57:07.412Z,9.75
2019-02-20T21:00:10.135Z,13.55
2019-02-20T21:02:55.625Z,10.10
2019-02-20T21:05:56.369Z,12.15
2019-02-20T21:08:58.512Z,9.70
2019-02-20T21:12:15.464Z,17.55
2019-02-20T21:15:36.547Z,15.83
2019-02-20T21:18:23.968Z,13.10
2019-02-20T21:21:25.163Z,12.15
2019-02-20T21:24:26.982Z,9.95
2019-02-20T21:27:32.044Z,12.47
2019-02-20T21:30:43.544Z,9.58
2019-02-20T21:34:06.066Z,11.73
2019-02-20T21:37:15.839Z,9.40
2019-02-20T21:40:26.584Z,12.00
2019-02-20T21:43:34.683Z,11.60
2019-02-20T21:46:29.899Z,12.13
2019-02-20T21:49:32.292Z,10.15
2019-02-20T21:53:01.387Z,13.10
2019-02-20T21:55:57.668Z,16.50
2019-02-20T21:58:45.115Z,10.53
2019-02-20T22:01:37.296Z,10.08
2019-02-20T22:04:43.410Z,9.55
2019-02-20T22:07:51.186Z,11.00
2019-02-20T22:11:11.221Z,8.95
2019-02-20T22:14:45.048Z,13.60
2019-02-20T22:17:46.724Z,11.68
2019-02-20T22:21:08.003Z,11.57
2019-02-20T22:23:55.161Z,11.12
2019-02-20T22:27:11.241Z,17.17
2019-02-20T22:30:43.570Z,13.53
2019-02-20T22:33:44.824Z,13.93
2019-02-20T22:36:51.011Z,14.45
2019-02-20T22:39:42.556Z,14.33
2019-02-20T22:42:43.184Z,13.68
2019-02-20T22:45:46.352Z,11.57
2019-02-20T22:49:03.378Z,12.53
2019-02-20T22:52:16.487Z,15.00
2019-02-20T22:55:32.477Z,14.70
2019-02-20T22:58:49.999Z,16.45
2019-02-20T23:01:59.944Z,12.47
2019-02-20T23:05:03.678Z,18.40
2019-02-20T23:07:47.818Z,12.73
2019-02-20T23:11:07.146Z,15.68
2019-02-20T23:14:19.519Z,16.82
2019-02-20T23:16:51.441Z,12.50
2019-02-20T23:19:24.061Z,16.90
2019-02-20T23:21:54.362Z,12.80
2019-02-20T23:24:24.714Z,18.40
2019-02-20T23:26:56.360Z,15.35
2019-02-20T23:29:26.499Z,15.45
2019-02-20T23:32:02.886Z,16.65
2019-02-20T23:34:32.994Z,14.65
2019-02-20T23:37:05.803Z,16.85
2019-02-20T23:39:38.182Z,14.83
2019-02-20T23:42:15.258Z,15.50
2019-02-20T23:44:45.492Z,16.93
2019-02-20T23:47:15.959Z,15.88
2019-02-20T23:49:47.394Z,24.65
2019-02-20T23:52:17.722Z,18.42
2019-02-20T23:54:50.630Z,17.23
2019-02-20T23:57:22.878Z,15.43
2019-02-20T23:59:53.523Z,18.37
